createdAt,value
2018-09-19T00:00:10.865Z,19.80
2018-09-19T00:02:39.831Z,19.80
2018-09-19T00:05:08.928Z,19.70
2018-09-19T00:07:38.012Z,19.90
2018-09-19T00:10:07.255Z,19.90
2018-09-19T00:12:36.313Z,19.90
2018-09-19T00:15:05.496Z,19.90
2018-09-19T00:17:34.583Z,19.90
2018-09-19T00:20:03.593Z,19.90
2018-09-19T00:22:32.824Z,19.90
2018-09-19T00:25:01.890Z,19.80
2018-09-19T00:27:30.889Z,19.80
2018-09-19T00:29:59.968Z,19.80
2018-09-19T00:32:28.976Z,19.80
2018-09-19T00:34:58.084Z,19.80
2018-09-19T00:37:27.176Z,19.70
2018-09-19T00:39:56.243Z,19.40
2018-09-19T00:42:25.226Z,19.50
2018-09-19T00:44:54.346Z,19.50
2018-09-19T00:47:23.443Z,19.50
2018-09-19T00:49:52.641Z,19.40
2018-09-19T00:52:21.728Z,19.30
2018-09-19T00:54:50.725Z,19.30
2018-09-19T00:57:19.695Z,19.40
2018-09-19T00:59:48.837Z,19.40
2018-09-19T01:02:17.879Z,19.10
2018-09-19T01:04:46.807Z,18.90
2018-09-19T01:07:15.985Z,18.70
2018-09-19T01:09:44.974Z,18.90
2018-09-19T01:12:14.114Z,18.90
2018-09-19T01:14:43.280Z,18.70
2018-09-19T01:17:12.384Z,18.70
2018-09-19T01:19:41.478Z,18.80
2018-09-19T01:22:10.468Z,18.70
2018-09-19T01:24:39.455Z,18.70
2018-09-19T01:27:08.405Z,18.70
2018-09-19T01:29:37.516Z,18.80
2018-09-19T01:32:06.619Z,18.90
2018-09-19T01:34:35.701Z,19.00
2018-09-19T01:37:04.847Z,19.00
2018-09-19T01:39:33.923Z,19.00
2018-09-19T01:42:02.924Z,18.90
2018-09-19T01:44:32.003Z,18.80
2018-09-19T01:47:01.096Z,18.50
2018-09-19T01:49:30.216Z,18.40
2018-09-19T01:51:59.389Z,18.40
2018-09-19T01:54:28.381Z,18.40
2018-09-19T01:56:57.468Z,18.50
2018-09-19T01:59:26.534Z,18.50
2018-09-19T02:01:55.587Z,18.60
2018-09-19T02:04:24.624Z,18.50
2018-09-19T02:06:53.746Z,18.60
2018-09-19T02:09:22.744Z,18.70
2018-09-19T02:11:51.702Z,18.60
2018-09-19T02:14:20.843Z,18.60
2018-09-19T02:16:49.920Z,18.60
2018-09-19T02:19:18.904Z,18.60
2018-09-19T02:21:47.846Z,18.50
2018-09-19T02:24:17.006Z,18.50
2018-09-19T02:26:46.136Z,18.50
2018-09-19T02:29:15.199Z,18.50
2018-09-19T02:31:44.157Z,18.60
2018-09-19T02:34:13.172Z,18.60
2018-09-19T02:36:42.268Z,18.50
2018-09-19T02:39:11.537Z,18.50
2018-09-19T02:41:40.540Z,18.60
2018-09-19T02:44:09.559Z,18.50
2018-09-19T02:46:38.638Z,18.50
2018-09-19T02:49:07.847Z,18.60
2018-09-19T02:51:36.975Z,18.60
2018-09-19T02:54:06.023Z,18.60
2018-09-19T02:56:35.025Z,18.50
2018-09-19T02:59:04.132Z,18.30
2018-09-19T03:01:33.245Z,18.20
2018-09-19T03:04:03.491Z,18.00
2018-09-19T03:06:32.746Z,18.10
2018-09-19T03:09:01.657Z,18.00
2018-09-19T03:11:30.740Z,17.90
2018-09-19T03:13:59.795Z,17.90
2018-09-19T03:16:28.939Z,17.70
2018-09-19T03:18:58.016Z,17.90
2018-09-19T03:21:27.079Z,18.00
2018-09-19T03:23:56.204Z,18.00
2018-09-19T03:26:25.291Z,18.10
2018-09-19T03:28:54.430Z,18.10
2018-09-19T03:31:23.605Z,18.00
2018-09-19T03:33:52.675Z,18.00
2018-09-19T03:36:21.783Z,18.00
2018-09-19T03:38:50.764Z,18.00
2018-09-19T03:41:19.876Z,18.00
2018-09-19T03:43:48.958Z,18.10
2018-09-19T03:46:18.059Z,18.10
2018-09-19T03:48:47.144Z,18.10
2018-09-19T03:51:16.253Z,18.10
2018-09-19T03:53:45.281Z,18.10
2018-09-19T03:56:14.352Z,18.00
2018-09-19T03:58:43.825Z,18.00
2018-09-19T04:01:12.832Z,18.10
2018-09-19T04:03:41.822Z,18.00
2018-09-19T04:06:10.845Z,17.90
2018-09-19T04:08:39.796Z,17.90
2018-09-19T04:11:08.892Z,17.70
2018-09-19T04:13:37.993Z,17.70
2018-09-19T04:16:06.975Z,17.60
2018-09-19T04:18:36.089Z,17.40
2018-09-19T04:21:05.170Z,17.10
2018-09-19T04:23:34.280Z,16.90
2018-09-19T04:26:03.315Z,16.90
2018-09-19T04:28:32.353Z,16.90
2018-09-19T04:31:01.345Z,16.70
2018-09-19T04:33:30.448Z,17.00
2018-09-19T04:35:59.542Z,17.20
2018-09-19T04:38:28.692Z,17.30
2018-09-19T04:40:57.722Z,17.40
2018-09-19T04:43:26.745Z,17.50
2018-09-19T04:45:55.815Z,17.50
2018-09-19T04:48:24.810Z,17.30
2018-09-19T04:50:53.896Z,17.30
2018-09-19T04:53:22.895Z,17.20
2018-09-19T04:55:52.037Z,17.00
2018-09-19T04:58:21.094Z,17.00
2018-09-19T05:00:50.065Z,16.80
2018-09-19T05:03:19.278Z,16.80
2018-09-19T05:05:48.489Z,16.70
2018-09-19T05:08:17.577Z,16.70
2018-09-19T05:10:46.655Z,16.70
2018-09-19T05:13:15.750Z,16.80
2018-09-19T05:15:44.844Z,16.90
2018-09-19T05:18:13.856Z,17.10
2018-09-19T05:20:42.858Z,17.20
2018-09-19T05:23:11.936Z,17.30
2018-09-19T05:25:41.134Z,17.30
2018-09-19T05:28:10.339Z,17.40
2018-09-19T05:30:39.422Z,17.40
2018-09-19T05:33:08.652Z,17.40
2018-09-19T05:35:37.813Z,17.20
2018-09-19T05:38:06.924Z,17.30
2018-09-19T05:40:35.980Z,17.20
2018-09-19T05:43:05.070Z,17.20
2018-09-19T05:45:34.212Z,16.90
2018-09-19T05:48:03.194Z,17.00
2018-09-19T05:50:32.207Z,17.00
2018-09-19T05:53:01.149Z,17.00
2018-09-19T05:55:30.277Z,16.90
2018-09-19T05:57:59.475Z,17.10
2018-09-19T06:00:28.569Z,17.00
2018-09-19T06:02:57.733Z,17.10
2018-09-19T06:05:27.097Z,17.10
2018-09-19T06:07:56.251Z,17.20
2018-09-19T06:10:25.310Z,17.20
2018-09-19T06:12:54.520Z,17.10
2018-09-19T06:15:23.930Z,17.30
2018-09-19T06:17:53.227Z,17.30
2018-09-19T06:20:22.501Z,17.40
2018-09-19T06:22:51.434Z,17.40
2018-09-19T06:25:20.585Z,17.50
2018-09-19T06:27:49.947Z,17.50
2018-09-19T06:30:19.394Z,17.40
2018-09-19T06:32:48.490Z,17.40
2018-09-19T06:35:17.637Z,17.50
2018-09-19T06:37:46.951Z,17.50
2018-09-19T06:40:16.247Z,17.40
2018-09-19T06:42:45.436Z,17.60
2018-09-19T06:45:14.574Z,17.60
2018-09-19T06:47:43.459Z,17.70
2018-09-19T06:50:12.633Z,17.60
2018-09-19T06:52:41.414Z,17.60
2018-09-19T06:55:10.637Z,17.60
2018-09-19T06:57:39.559Z,17.60
2018-09-19T07:00:08.930Z,17.70
2018-09-19T07:02:38.068Z,17.70
2018-09-19T07:05:07.281Z,17.70
2018-09-19T07:07:36.483Z,17.80
2018-09-19T07:10:05.535Z,17.80
2018-09-19T07:12:34.707Z,17.80
2018-09-19T07:15:04.031Z,17.90
2018-09-19T07:17:33.362Z,17.90
2018-09-19T07:20:02.572Z,17.90
2018-09-19T07:22:31.749Z,17.90
2018-09-19T07:25:01.198Z,18.00
2018-09-19T07:27:30.385Z,18.00
2018-09-19T07:29:59.263Z,18.00
2018-09-19T07:32:28.175Z,18.00
2018-09-19T07:34:57.365Z,18.10
2018-09-19T07:37:26.268Z,18.20
2018-09-19T07:39:55.566Z,18.20
2018-09-19T07:42:24.771Z,18.20
2018-09-19T07:44:54.032Z,18.20
2018-09-19T07:47:23.370Z,18.30
2018-09-19T07:49:52.675Z,18.30
2018-09-19T07:52:22.175Z,18.40
2018-09-19T07:54:51.102Z,18.40
2018-09-19T07:57:20.275Z,18.50
2018-09-19T07:59:49.463Z,18.50
2018-09-19T08:02:18.775Z,18.60
2018-09-19T08:04:54.484Z,18.60
2018-09-19T08:07:23.866Z,18.60
2018-09-19T08:09:53.111Z,18.70
2018-09-19T08:12:22.388Z,18.70
2018-09-19T08:14:51.667Z,18.80
2018-09-19T08:17:20.810Z,18.80
2018-09-19T08:19:50.139Z,18.90
2018-09-19T08:22:19.264Z,18.90
2018-09-19T08:24:48.685Z,19.00
2018-09-19T08:27:18.011Z,19.00
2018-09-19T08:29:47.324Z,19.10
2018-09-19T08:32:16.271Z,19.10
2018-09-19T08:34:45.594Z,19.20
2018-09-19T08:37:14.778Z,19.20
2018-09-19T08:39:43.683Z,19.30
2018-09-19T08:42:12.492Z,19.30
2018-09-19T08:44:41.892Z,19.40
2018-09-19T08:47:11.023Z,19.40
2018-09-19T08:49:40.193Z,19.50
2018-09-19T08:52:09.441Z,19.50
2018-09-19T08:54:38.763Z,19.60
2018-09-19T08:57:08.428Z,19.60
2018-09-19T08:59:37.560Z,19.70
2018-09-19T09:02:06.706Z,19.70
2018-09-19T09:04:36.103Z,19.80
2018-09-19T09:07:05.275Z,19.80
2018-09-19T09:09:34.351Z,19.80
2018-09-19T09:12:03.642Z,19.90
2018-09-19T09:14:32.556Z,20.00
2018-09-19T09:17:01.547Z,20.00
2018-09-19T09:19:30.651Z,20.10
2018-09-19T09:21:59.928Z,20.10
2018-09-19T09:24:29.069Z,20.20
2018-09-19T09:26:58.155Z,20.20
2018-09-19T09:29:27.200Z,20.20
2018-09-19T09:31:56.380Z,20.30
2018-09-19T09:34:25.540Z,20.30
2018-09-19T09:36:54.690Z,20.40
2018-09-19T09:39:23.676Z,20.40
2018-09-19T09:41:52.620Z,20.50
2018-09-19T09:44:21.619Z,20.60
2018-09-19T09:46:50.859Z,20.60
2018-09-19T09:49:19.920Z,20.70
2018-09-19T09:51:49.599Z,20.70
2018-09-19T09:54:18.589Z,20.80
2018-09-19T09:56:47.601Z,20.80
2018-09-19T09:59:16.734Z,20.90
2018-09-19T10:01:45.808Z,21.00
2018-09-19T10:04:19.123Z,21.10
2018-09-19T10:06:52.544Z,21.20
2018-09-19T10:09:25.810Z,21.20
2018-09-19T10:12:00.016Z,21.30
2018-09-19T10:14:34.482Z,21.30
2018-09-19T10:17:07.190Z,21.40
2018-09-19T10:19:36.199Z,21.50
2018-09-19T10:22:11.106Z,21.50
2018-09-19T10:24:43.422Z,21.60
2018-09-19T10:27:13.545Z,21.70
2018-09-19T10:29:46.932Z,21.80
2018-09-19T10:32:17.806Z,21.90
2018-09-19T10:34:52.109Z,22.00
2018-09-19T10:37:27.221Z,22.10
2018-09-19T10:39:58.376Z,22.20
2018-09-19T10:42:32.379Z,22.30
2018-09-19T10:45:06.297Z,22.30
2018-09-19T10:47:40.454Z,22.40
2018-09-19T10:50:12.193Z,22.60
2018-09-19T10:52:44.403Z,22.70
2018-09-19T10:55:16.747Z,22.80
2018-09-19T10:57:49.368Z,23.00
2018-09-19T11:00:20.587Z,23.10
2018-09-19T11:02:49.729Z,23.20
2018-09-19T11:05:18.931Z,23.30
2018-09-19T11:07:47.952Z,23.30
2018-09-19T11:10:17.064Z,23.40
2018-09-19T11:12:46.088Z,23.50
2018-09-19T11:15:15.204Z,23.80
2018-09-19T11:17:43.247Z,23.80
2018-09-19T11:20:21.675Z,23.90
2018-09-19T11:22:55.699Z,24.00
2018-09-19T11:25:31.900Z,24.20
2018-09-19T11:28:07.231Z,24.20
2018-09-19T11:30:37.450Z,24.30
2018-09-19T11:33:06.872Z,24.50
2018-09-19T11:35:35.106Z,24.60
2018-09-19T11:38:04.308Z,24.60
2018-09-19T11:40:33.511Z,24.80
2018-09-19T11:43:02.325Z,24.90
2018-09-19T11:45:31.526Z,25.00
2018-09-19T11:48:00.181Z,25.10
2018-09-19T11:50:29.033Z,25.10
2018-09-19T11:52:57.219Z,25.30
2018-09-19T11:55:25.411Z,25.40
2018-09-19T11:57:53.480Z,25.50
2018-09-19T12:00:23.045Z,25.50
2018-09-19T12:02:51.332Z,25.60
2018-09-19T12:05:19.476Z,25.80
2018-09-19T12:07:47.659Z,25.80
2018-09-19T12:10:17.092Z,26.00
2018-09-19T12:12:45.187Z,26.10
2018-09-19T12:15:13.355Z,26.20
2018-09-19T12:17:41.424Z,26.20
2018-09-19T12:20:09.596Z,26.30
2018-09-19T12:22:37.668Z,26.50
2018-09-19T12:25:05.830Z,26.60
2018-09-19T12:27:33.918Z,26.70
2018-09-19T12:30:01.973Z,26.80
2018-09-19T12:32:31.219Z,26.90
2018-09-19T12:35:00.780Z,27.00
2018-09-19T12:37:29.839Z,27.10
2018-09-19T12:39:58.771Z,27.10
2018-09-19T12:42:27.873Z,27.20
2018-09-19T12:44:56.912Z,27.30
2018-09-19T12:47:26.000Z,27.40
2018-09-19T12:49:55.122Z,27.50
2018-09-19T12:52:24.288Z,27.60
2018-09-19T12:54:53.492Z,27.70
2018-09-19T12:57:22.575Z,27.80
2018-09-19T12:59:51.679Z,27.80
2018-09-19T13:02:20.703Z,28.00
2018-09-19T13:04:49.937Z,28.00
2018-09-19T13:07:19.063Z,28.10
2018-09-19T13:09:48.140Z,28.20
2018-09-19T13:12:17.383Z,28.30
2018-09-19T13:14:46.345Z,28.40
2018-09-19T13:17:15.323Z,28.50
2018-09-19T13:19:44.435Z,28.60
2018-09-19T13:22:13.432Z,28.70
2018-09-19T13:24:42.403Z,28.80
2018-09-19T13:27:11.552Z,28.90
2018-09-19T13:29:40.612Z,28.90
2018-09-19T13:32:09.704Z,28.90
2018-09-19T13:34:38.785Z,28.90
2018-09-19T13:37:07.903Z,28.90
2018-09-19T13:39:37.027Z,28.90
2018-09-19T13:42:06.095Z,28.90
2018-09-19T13:44:35.076Z,28.90
2018-09-19T13:47:04.198Z,28.90
2018-09-19T13:49:40.089Z,28.90
2018-09-19T13:52:09.214Z,29.00
2018-09-19T13:54:38.231Z,29.00
2018-09-19T13:57:07.342Z,29.00
2018-09-19T13:59:36.282Z,29.00
2018-09-19T14:02:05.377Z,29.00
2018-09-19T14:06:02.229Z,29.00
2018-09-19T14:08:31.509Z,29.10
2018-09-19T14:11:00.608Z,29.00
2018-09-19T14:13:29.639Z,29.00
2018-09-19T14:15:59.810Z,29.00
2018-09-19T14:18:28.847Z,29.00
2018-09-19T14:20:57.965Z,29.00
2018-09-19T14:23:27.159Z,29.00
2018-09-19T14:25:56.164Z,29.00
2018-09-19T14:28:25.331Z,29.00
2018-09-19T14:30:54.307Z,29.00
2018-09-19T14:33:23.610Z,29.10
2018-09-19T14:35:52.770Z,29.10
2018-09-19T14:38:21.888Z,29.10
2018-09-19T14:40:51.003Z,29.00
2018-09-19T14:43:20.109Z,29.00
2018-09-19T14:45:49.188Z,29.00
2018-09-19T14:48:18.302Z,29.00
2018-09-19T14:50:47.269Z,29.10
2018-09-19T14:53:16.373Z,29.10
2018-09-19T14:55:45.611Z,29.10
2018-09-19T14:58:14.687Z,29.10
2018-09-19T15:00:43.869Z,29.10
2018-09-19T15:03:12.972Z,29.10
2018-09-19T15:05:42.080Z,29.10
2018-09-19T15:08:11.190Z,29.00
2018-09-19T15:10:40.376Z,28.90
2018-09-19T15:13:09.457Z,28.90
2018-09-19T15:15:38.612Z,28.80
2018-09-19T15:18:07.740Z,28.80
2018-09-19T15:20:36.950Z,28.80
2018-09-19T15:23:06.026Z,28.70
2018-09-19T15:25:35.055Z,28.70
2018-09-19T15:28:04.237Z,28.60
2018-09-19T15:30:33.231Z,28.50
2018-09-19T15:33:02.243Z,28.40
2018-09-19T15:35:31.398Z,28.40
2018-09-19T15:38:00.523Z,28.00
2018-09-19T15:40:29.585Z,27.60
2018-09-19T15:42:58.584Z,27.40
2018-09-19T15:45:27.739Z,27.50
2018-09-19T15:47:56.851Z,27.40
2018-09-19T15:50:25.956Z,27.40
2018-09-19T15:52:55.056Z,27.30
2018-09-19T15:55:24.266Z,27.20
2018-09-19T15:57:53.463Z,27.10
2018-09-19T16:00:22.609Z,27.10
2018-09-19T16:02:51.677Z,27.00
2018-09-19T16:05:20.849Z,26.90
2018-09-19T16:07:50.134Z,26.80
2018-09-19T16:10:19.275Z,26.80
2018-09-19T16:12:48.250Z,26.70
2018-09-19T16:15:17.364Z,26.60
2018-09-19T16:17:46.520Z,26.60
2018-09-19T16:20:15.493Z,26.50
2018-09-19T16:22:44.648Z,26.50
2018-09-19T16:25:13.795Z,26.50
2018-09-19T16:27:43.007Z,26.40
2018-09-19T16:30:12.876Z,26.30
2018-09-19T16:32:41.784Z,26.30
2018-09-19T16:35:10.842Z,26.20
2018-09-19T16:37:39.905Z,26.10
2018-09-19T16:40:08.998Z,26.10
2018-09-19T16:42:38.175Z,26.00
2018-09-19T16:45:07.278Z,26.00
2018-09-19T16:47:36.432Z,25.90
2018-09-19T16:50:05.644Z,25.90
2018-09-19T16:52:34.680Z,25.80
2018-09-19T16:55:03.806Z,25.70
2018-09-19T16:57:33.196Z,25.70
2018-09-19T17:00:02.299Z,25.60
2018-09-19T17:02:31.361Z,25.50
2018-09-19T17:05:00.440Z,25.50
2018-09-19T17:07:29.439Z,25.40
2018-09-19T17:09:58.546Z,25.40
2018-09-19T17:12:27.754Z,25.40
2018-09-19T17:14:57.059Z,25.30
2018-09-19T17:17:26.004Z,25.20
2018-09-19T17:19:55.297Z,25.20
2018-09-19T17:22:24.329Z,25.10
2018-09-19T17:24:53.880Z,25.00
2018-09-19T17:27:22.922Z,24.90
2018-09-19T17:29:51.956Z,24.80
2018-09-19T17:32:21.478Z,24.80
2018-09-19T17:34:50.704Z,24.70
2018-09-19T17:37:19.870Z,24.70
2018-09-19T17:39:49.999Z,24.70
2018-09-19T17:42:19.419Z,24.70
2018-09-19T17:44:48.636Z,24.50
2018-09-19T17:47:17.838Z,24.50
2018-09-19T17:49:47.155Z,24.50
2018-09-19T17:52:16.342Z,24.50
2018-09-19T17:54:45.528Z,24.50
2018-09-19T17:57:14.724Z,24.50
2018-09-19T17:59:43.794Z,24.40
2018-09-19T18:02:12.969Z,24.30
2018-09-19T18:04:42.228Z,24.30
2018-09-19T18:07:11.433Z,24.30
2018-09-19T18:09:40.395Z,24.20
2018-09-19T18:12:09.595Z,24.20
2018-09-19T18:14:38.731Z,24.20
2018-09-19T18:17:07.865Z,24.20
2018-09-19T18:19:37.030Z,24.20
2018-09-19T18:22:06.264Z,24.20
2018-09-19T18:24:35.353Z,23.90
2018-09-19T18:27:04.625Z,23.90
2018-09-19T18:29:33.874Z,23.90
2018-09-19T18:32:03.059Z,23.80
2018-09-19T18:34:32.332Z,23.70
2018-09-19T18:37:00.478Z,23.70
2018-09-19T18:39:28.578Z,23.70
2018-09-19T18:41:56.740Z,23.70
2018-09-19T18:44:26.551Z,23.60
2018-09-19T18:46:54.743Z,23.60
2018-09-19T18:49:22.988Z,23.50
2018-09-19T18:51:51.305Z,23.40
2018-09-19T18:54:21.608Z,23.40
2018-09-19T18:56:50.098Z,23.50
2018-09-19T18:59:18.214Z,23.40
2018-09-19T19:01:46.487Z,23.40
2018-09-19T19:04:14.911Z,23.40
2018-09-19T19:06:43.496Z,23.40
2018-09-19T19:09:12.508Z,23.40
2018-09-19T19:11:40.663Z,23.20
2018-09-19T19:14:08.731Z,23.10
2018-09-19T19:16:37.003Z,23.10
2018-09-19T19:19:05.349Z,23.10
2018-09-19T19:21:33.404Z,23.10
2018-09-19T19:24:01.513Z,23.10
2018-09-19T19:26:29.695Z,23.10
2018-09-19T19:28:57.866Z,23.00
2018-09-19T19:31:26.046Z,23.00
2018-09-19T19:33:54.069Z,23.00
2018-09-19T19:36:22.177Z,22.90
2018-09-19T19:38:50.407Z,22.90
2018-09-19T19:41:18.619Z,22.90
2018-09-19T19:43:46.916Z,22.70
2018-09-19T19:46:15.079Z,22.80
2018-09-19T19:48:43.149Z,22.70
2018-09-19T19:51:11.327Z,22.70
2018-09-19T19:53:39.393Z,22.70
2018-09-19T19:56:07.521Z,22.70
2018-09-19T19:58:35.696Z,22.70
2018-09-19T20:01:04.708Z,22.60
2018-09-19T20:03:32.759Z,22.60
2018-09-19T20:06:00.903Z,22.60
2018-09-19T20:08:28.944Z,22.50
2018-09-19T20:10:57.192Z,22.50
2018-09-19T20:13:25.393Z,22.50
2018-09-19T20:15:53.472Z,22.30
2018-09-19T20:18:21.557Z,22.20
2018-09-19T20:20:49.692Z,22.10
2018-09-19T20:23:17.814Z,22.10
2018-09-19T20:25:45.952Z,22.10
2018-09-19T20:28:14.004Z,22.10
2018-09-19T20:30:42.205Z,21.80
2018-09-19T20:33:10.469Z,21.70
2018-09-19T20:35:38.501Z,21.40
2018-09-19T20:38:06.580Z,21.50
2018-09-19T20:40:34.663Z,21.50
2018-09-19T20:43:02.848Z,21.60
2018-09-19T20:45:30.976Z,21.70
2018-09-19T20:47:59.164Z,21.40
2018-09-19T20:50:27.274Z,21.10
2018-09-19T20:52:55.725Z,20.80
2018-09-19T20:55:24.073Z,20.70
2018-09-19T20:57:52.090Z,20.90
2018-09-19T21:00:20.274Z,21.10
2018-09-19T21:02:48.346Z,21.10
2018-09-19T21:05:16.517Z,21.20
2018-09-19T21:07:44.573Z,21.00
2018-09-19T21:10:12.761Z,21.00
2018-09-19T21:12:40.833Z,20.80
2018-09-19T21:15:08.907Z,20.90
2018-09-19T21:17:37.016Z,21.10
2018-09-19T21:20:05.113Z,21.20
2018-09-19T21:22:33.274Z,21.10
2018-09-19T21:25:01.494Z,21.20
2018-09-19T21:27:29.770Z,21.20
2018-09-19T21:29:57.951Z,21.20
2018-09-19T21:32:26.012Z,21.20
2018-09-19T21:34:54.070Z,21.10
2018-09-19T21:37:23.120Z,21.00
2018-09-19T21:39:51.322Z,20.90
2018-09-19T21:42:19.427Z,20.90
2018-09-19T21:44:47.473Z,20.90
2018-09-19T21:47:15.530Z,20.70
2018-09-19T21:49:44.593Z,20.60
2018-09-19T21:52:12.837Z,20.60
2018-09-19T21:54:41.130Z,20.70
2018-09-19T21:57:09.334Z,20.50
2018-09-19T21:59:37.427Z,20.40
2018-09-19T22:02:05.509Z,20.30
2018-09-19T22:04:33.585Z,20.40
2018-09-19T22:07:01.682Z,20.50
2018-09-19T22:09:29.710Z,20.50
2018-09-19T22:11:57.806Z,20.50
2018-09-19T22:14:27.044Z,20.60
2018-09-19T22:16:56.156Z,20.50
2018-09-19T22:19:24.373Z,20.50
2018-09-19T22:21:53.420Z,20.50
2018-09-19T22:24:22.411Z,20.50
2018-09-19T22:26:51.394Z,20.50
2018-09-19T22:29:19.525Z,20.40
2018-09-19T22:31:48.576Z,20.40
2018-09-19T22:34:17.552Z,20.30
2018-09-19T22:36:46.507Z,20.30
2018-09-19T22:39:15.649Z,20.20
2018-09-19T22:41:44.645Z,20.10
2018-09-19T22:44:13.932Z,19.90
2018-09-19T22:46:42.915Z,20.00
2018-09-19T22:49:11.896Z,19.90
2018-09-19T22:51:41.011Z,20.00
2018-09-19T22:54:10.053Z,20.00
2018-09-19T22:56:39.089Z,20.00
2018-09-19T22:59:08.293Z,19.90
2018-09-19T23:01:37.199Z,19.90
2018-09-19T23:04:06.476Z,19.60
2018-09-19T23:06:35.465Z,19.50
2018-09-19T23:09:05.361Z,19.60
2018-09-19T23:11:34.380Z,19.50
2018-09-19T23:14:03.444Z,19.50
2018-09-19T23:16:32.592Z,19.60
2018-09-19T23:19:01.573Z,19.70
2018-09-19T23:21:30.565Z,19.70
2018-09-19T23:23:59.543Z,19.70
2018-09-19T23:26:28.538Z,19.70
2018-09-19T23:28:57.543Z,19.70
2018-09-19T23:31:26.537Z,19.70
2018-09-19T23:33:55.539Z,19.60
2018-09-19T23:36:24.511Z,19.60
2018-09-19T23:38:53.608Z,19.40
2018-09-19T23:41:22.608Z,19.30
2018-09-19T23:43:51.568Z,19.10
2018-09-19T23:46:20.721Z,18.90
2018-09-19T23:48:49.764Z,19.00
2018-09-19T23:51:18.773Z,19.00
2018-09-19T23:53:47.879Z,19.00
2018-09-19T23:56:16.965Z,19.00
2018-09-19T23:58:46.072Z,19.00
